Time;durP1;ratioP1;P1;durP2;ratioP2;P2;SDS_P1;SDS_P2;PMS_P1;PMS_P2;Temp;Humidity;BMP_temperature;BMP_pressure;BME280_temperature;BME280_humidity;BME280_pressure;Samples;Min_cycle;Max_cycle;Signal;HPM_P1;HPM_P2
2022/09/23 00:00:21;;;;;;;;;;;;;;;;;;1046596;28;19913;-77
2022/09/23 00:00:51;;;;;;;;;;;;;;;;;;1046375;28;20323;-77
2022/09/23 00:01:22;;;;;;;;;;;;;;;;;;1042201;28;20274;-77
2022/09/23 00:01:52;;;;;;;;;;;;;;;;;;1043144;28;20099;-77
2022/09/23 00:02:23;;;;;;;;;;;;;;;;;;1042078;28;19912;-77
2022/09/23 00:02:53;;;;;;;;;;;;;;;;;;1042495;28;20011;-77
2022/09/23 00:03:23;;;;;;;;;;;;;;;;;;1046205;28;19928;-77
2022/09/23 00:03:54;;;;;;;;;;;;;;;;;;1046299;28;19913;-77
2022/09/23 00:04:24;;;;;;;;;;;;;;;;;;1046328;28;19923;-77
2022/09/23 00:04:55;;;;;;;;;;;;;;;;;;1042472;28;19968;-77
2022/09/23 00:05:25;;;;;;;;;;;;;;;;;;1042654;28;19939;-77
2022/09/23 00:05:56;;;;;;;;;;;;;;;;;;1040228;28;19917;-77
2022/09/23 00:06:27;;;;;;;;;;;;;;;;;;1044548;28;20003;-77
2022/09/23 00:06:57;;;;;;;;;;;;;;;;;;1048502;28;20369;-77
2022/09/23 00:07:27;;;;;;;;;;;;;;;;;;1048244;28;19991;-77
2022/09/23 00:07:57;;;;;;;;;;;;;;;;;;1042216;28;20359;-77
2022/09/23 00:08:28;;;;;;;;;;;;;;;;;;1042486;28;20009;-77
2022/09/23 00:08:58;;;;;;;;;;;;;;;;;;1042359;28;20299;-77
2022/09/23 00:09:28;;;;;;;;;;;;;;;;;;1042120;28;20004;-77
2022/09/23 00:09:59;;;;;;;;;;;;;;;;;;1042126;28;20048;-77
2022/09/23 00:10:30;;;;;;;;;;;;;;;;;;1042002;28;19919;-77
2022/09/23 00:11:00;;;;;;;;;;;;;;;;;;1042184;28;20360;-77
2022/09/23 00:11:30;;;;;;;;;;;;;;;;;;1043399;28;19909;-77
2022/09/23 00:12:00;;;;;;;;;;;;;;;;;;1041464;28;19913;-77
2022/09/23 00:12:31;;;;;;;;;;;;;;;;;;1042558;28;19913;-77
2022/09/23 00:13:01;;;;;;;;;;;;;;;;;;1042151;28;19935;-77
2022/09/23 00:13:31;;;;;;;;;;;;;;;;;;1040780;28;19912;-77
2022/09/23 00:14:02;;;;;;;;;;;;;;;;;;1041089;28;20288;-77
2022/09/23 00:14:32;;;;;;;;;;;;;;;;;;1041153;28;20033;-77
2022/09/23 00:15:02;;;;;;;;;;;;;;;;;;1042001;28;20364;-77
2022/09/23 00:15:33;;;;;;;;;;;;;;;;;;1043844;28;20522;-77
2022/09/23 00:16:03;;;;;;;;;;;;;;;;;;1041517;28;19914;-77
2022/09/23 00:16:34;;;;;;;;;;;;;;;;;;1042456;28;20018;-77
2022/09/23 00:17:04;;;;;;;;;;;;;;;;;;1042449;28;19956;-77
2022/09/23 00:17:34;;;;;;;;;;;;;;;;;;1043177;28;19923;-77
2022/09/23 00:18:04;;;;;;;;;;;;;;;;;;1042341;28;19947;-77
2022/09/23 00:18:35;;;;;;;;;;;;;;;;;;1041572;28;20410;-77
2022/09/23 00:19:05;;;;;;;;;;;;;;;;;;1043057;28;19913;-77
2022/09/23 00:19:36;;;;;;;;;;;;;;;;;;1042258;28;19912;-77
2022/09/23 00:20:08;;;;;;;;;;;;;;;;;;1041710;28;20366;-77
2022/09/23 00:20:39;;;;;;;;;;;;;;;;;;1042256;28;19921;-77
2022/09/23 00:21:09;;;;;;;;;;;;;;;;;;1042071;28;20386;-77
2022/09/23 00:21:41;;;;;;;;;;;;;;;;;;1042634;28;19959;-77
2022/09/23 00:22:12;;;;;;;;;;;;;;;;;;1041002;28;19913;-77
2022/09/23 00:22:43;;;;;;;;;;;;;;;;;;1042531;28;20004;-77
2022/09/23 00:23:13;;;;;;;;;;;;;;;;;;1042324;28;19913;-77
2022/09/23 00:23:43;;;;;;;;;;;;;;;;;;1041898;28;19956;-77
2022/09/23 00:24:14;;;;;;;;;;;;;;;;;;1042828;28;19917;-77
2022/09/23 00:24:45;;;;;;;;;;;;;;;;;;1042291;28;19917;-77
2022/09/23 00:25:15;;;;;;;;;;;;;;;;;;1042165;28;19917;-77
2022/09/23 00:25:45;;;;;;;;;;;;;;;;;;1045752;28;19936;-77
2022/09/23 00:26:16;;;;;;;;;;;;;;;;;;1046370;28;19912;-77
2022/09/23 00:26:46;;;;;;;;;;;;;;;;;;1046396;28;20050;-77
2022/09/23 00:27:19;;;;;;;;;;;;;;;;;;1042425;28;20487;-77
2022/09/23 00:27:50;;;;;;;;;;;;;;;;;;1042538;28;19913;-77
2022/09/23 00:28:20;;;;;;;;;;;;;;;;;;1042515;28;20436;-77
2022/09/23 00:28:50;;;;;;;;;;;;;;;;;;1044161;28;19912;-77
2022/09/23 00:29:22;;;;;;;;;;;;;;;;;;1042326;28;19913;-77
2022/09/23 00:29:52;;;;;;;;;;;;;;;;;;1042657;28;19917;-77
2022/09/23 00:30:22;;;;;;;;;;;;;;;;;;1042060;28;19917;-77
2022/09/23 00:30:53;;;;;;;;;;;;;;;;;;1042193;28;19953;-77
2022/09/23 00:31:23;;;;;;;;;;;;;;;;;;1041643;28;19920;-77
2022/09/23 00:31:53;;;;;;;;;;;;;;;;;;1042366;28;19935;-77
2022/09/23 00:32:24;;;;;;;;;;;;;;;;;;1041891;28;19948;-77
2022/09/23 00:32:55;;;;;;;;;;;;;;;;;;1042629;28;19952;-77
2022/09/23 00:33:25;;;;;;;;;;;;;;;;;;1042103;28;19913;-77
2022/09/23 00:33:56;;;;;;;;;;;;;;;;;;1042220;28;19913;-77
2022/09/23 00:34:26;;;;;;;;;;;;;;;;;;1042301;28;19920;-77
2022/09/23 00:34:57;;;;;;;;;;;;;;;;;;1042143;28;19948;-77
2022/09/23 00:35:27;;;;;;;;;;;;;;;;;;1042193;28;19917;-77
2022/09/23 00:35:57;;;;;;;;;;;;;;;;;;1042412;28;19939;-77
2022/09/23 00:36:27;;;;;;;;;;;;;;;;;;1043705;28;19940;-77
2022/09/23 00:36:58;;;;;;;;;;;;;;;;;;1041974;28;19935;-76
2022/09/23 00:37:28;;;;;;;;;;;;;;;;;;1042976;28;20317;-77
2022/09/23 00:37:58;;;;;;;;;;;;;;;;;;1042452;28;19913;-77
2022/09/23 00:38:28;;;;;;;;;;;;;;;;;;1040908;28;20554;-77
2022/09/23 00:38:59;;;;;;;;;;;;;;;;;;1041975;28;19913;-77
2022/09/23 00:39:29;;;;;;;;;;;;;;;;;;1042013;28;19923;-77
2022/09/23 00:40:00;;;;;;;;;;;;;;;;;;1041032;28;19917;-77
2022/09/23 00:40:30;;;;;;;;;;;;;;;;;;1042688;28;20304;-77
2022/09/23 00:41:00;;;;;;;;;;;;;;;;;;1045068;28;20392;-77
2022/09/23 00:41:30;;;;;;;;;;;;;;;;;;1046872;28;19938;-77
2022/09/23 00:42:01;;;;;;;;;;;;;;;;;;1045495;28;20516;-77
2022/09/23 00:42:31;;;;;;;;;;;;;;;;;;1042239;28;19913;-77
2022/09/23 00:43:01;;;;;;;;;;;;;;;;;;1041626;28;19920;-77
2022/09/23 00:43:32;;;;;;;;;;;;;;;;;;1042228;28;20080;-77
2022/09/23 00:44:02;;;;;;;;;;;;;;;;;;1042357;28;19913;-77
2022/09/23 00:44:33;;;;;;;;;;;;;;;;;;1042235;28;20004;-77
2022/09/23 00:45:03;;;;;;;;;;;;;;;;;;1042002;28;20372;-77
2022/09/23 00:45:33;;;;;;;;;;;;;;;;;;1041631;28;20530;-77
2022/09/23 00:46:04;;;;;;;;;;;;;;;;;;1043701;28;19920;-77
2022/09/23 00:46:34;;;;;;;;;;;;;;;;;;1042428;28;19917;-77
2022/09/23 00:47:04;;;;;;;;;;;;;;;;;;1042290;28;20452;-77
2022/09/23 00:47:35;;;;;;;;;;;;;;;;;;1041093;28;19920;-77
2022/09/23 00:48:05;;;;;;;;;;;;;;;;;;1042171;28;20000;-77
2022/09/23 00:48:35;;;;;;;;;;;;;;;;;;1041317;28;19964;-77
2022/09/23 00:49:06;;;;;;;;;;;;;;;;;;1041932;28;20007;-77
2022/09/23 00:49:36;;;;;;;;;;;;;;;;;;1042510;28;19913;-77
2022/09/23 00:50:07;;;;;;;;;;;;;;;;;;1042367;28;20262;-77
2022/09/23 00:50:38;;;;;;;;;;;;;;;;;;1042017;28;20404;-77
2022/09/23 00:51:08;;;;;;;;;;;;;;;;;;1041234;28;19952;-77
2022/09/23 00:51:39;;;;;;;;;;;;;;;;;;1042107;28;20260;-77
2022/09/23 00:52:09;;;;;;;;;;;;;;;;;;1042063;28;19919;-77
2022/09/23 00:52:39;;;;;;;;;;;;;;;;;;1042219;28;19913;-77
2022/09/23 00:53:09;;;;;;;;;;;;;;;;;;1040920;28;20388;-77
2022/09/23 00:53:40;;;;;;;;;;;;;;;;;;1041978;28;19912;-77
2022/09/23 00:54:10;;;;;;;;;;;;;;;;;;1042458;28;19913;-77
2022/09/23 00:54:40;;;;;;;;;;;;;;;;;;1042018;28;20391;-77
2022/09/23 00:55:10;;;;;;;;;;;;;;;;;;1040681;28;19917;-77
2022/09/23 00:55:41;;;;;;;;;;;;;;;;;;1042157;28;19912;-77
2022/09/23 00:56:12;;;;;;;;;;;;;;;;;;1041766;28;20301;-77
2022/09/23 00:56:42;;;;;;;;;;;;;;;;;;1042520;28;20011;-77
2022/09/23 00:57:12;;;;;;;;;;;;;;;;;;1042194;28;19913;-77
2022/09/23 00:57:42;;;;;;;;;;;;;;;;;;1042439;28;19913;-77
2022/09/23 00:58:13;;;;;;;;;;;;;;;;;;1041583;28;19959;-77
2022/09/23 00:58:44;;;;;;;;;;;;;;;;;;1041737;28;20269;-77
2022/09/23 00:59:14;;;;;;;;;;;;;;;;;;1042227;28;20015;-77
2022/09/23 00:59:45;;;;;;;;;;;;;;;;;;1042536;28;19917;-77
2022/09/23 01:00:15;;;;;;;;;;;;;;;;;;1042095;28;19917;-77
2022/09/23 01:00:45;;;;;;;;;;;;;;;;;;1042461;28;19919;-77
2022/09/23 01:01:16;;;;;;;;;;;;;;;;;;1042314;28;20285;-77
2022/09/23 01:01:48;;;;;;;;;;;;;;;;;;1042462;28;19913;-77
2022/09/23 01:02:19;;;;;;;;;;;;;;;;;;1041682;28;19951;-77
2022/09/23 01:02:50;;;;;;;;;;;;;;;;;;1041611;28;19959;-77
2022/09/23 01:03:21;;;;;;;;;;;;;;;;;;1041894;28;20426;-77
2022/09/23 01:03:53;;;;;;;;;;;;;;;;;;1041951;28;19916;-77
2022/09/23 01:04:23;;;;;;;;;;;;;;;;;;1041743;28;19928;-77
2022/09/23 01:04:53;;;;;;;;;;;;;;;;;;1043947;28;19924;-77
2022/09/23 01:05:24;;;;;;;;;;;;;;;;;;1040211;28;19917;-77
2022/09/23 01:05:54;;;;;;;;;;;;;;;;;;1038230;28;19940;-77
2022/09/23 01:06:25;;;;;;;;;;;;;;;;;;1039923;28;19917;-77
2022/09/23 01:06:55;;;;;;;;;;;;;;;;;;1043038;28;19913;-77
2022/09/23 01:07:25;;;;;;;;;;;;;;;;;;1039755;28;19919;-77
2022/09/23 01:07:56;;;;;;;;;;;;;;;;;;1038864;28;20279;-77
2022/09/23 01:08:26;;;;;;;;;;;;;;;;;;1037297;28;19952;-77
2022/09/23 01:08:57;;;;;;;;;;;;;;;;;;1036908;28;20411;-77
2022/09/23 01:09:27;;;;;;;;;;;;;;;;;;1038949;28;19983;-77
2022/09/23 01:09:57;;;;;;;;;;;;;;;;;;1041814;28;19978;-77
2022/09/23 01:10:28;;;;;;;;;;;;;;;;;;1041276;28;19920;-77
2022/09/23 01:10:58;;;;;;;;;;;;;;;;;;1042107;28;20007;-76
2022/09/23 01:11:28;;;;;;;;;;;;;;;;;;1041706;28;19909;-77
2022/09/23 01:11:59;;;;;;;;;;;;;;;;;;1042306;28;19913;-77
2022/09/23 01:12:29;;;;;;;;;;;;;;;;;;1041306;28;19951;-77
2022/09/23 01:12:59;;;;;;;;;;;;;;;;;;1042033;28;19998;-77
2022/09/23 01:13:31;;;;;;;;;;;;;;;;;;1042691;28;20364;-76
2022/09/23 01:14:01;;;;;;;;;;;;;;;;;;1041824;28;19951;-76
2022/09/23 01:14:32;;;;;;;;;;;;;;;;;;1042864;28;19927;-77
2022/09/23 01:15:02;;;;;;;;;;;;;;;;;;1039531;28;20296;-76
2022/09/23 01:15:33;;;;;;;;;;;;;;;;;;1039322;28;19960;-76
2022/09/23 01:16:03;;;;;;;;;;;;;;;;;;1035347;28;19914;-76
2022/09/23 01:16:33;;;;;;;;;;;;;;;;;;1039360;28;20011;-76
2022/09/23 01:17:04;;;;;;;;;;;;;;;;;;1039690;28;19913;-77
2022/09/23 01:17:34;;;;;;;;;;;;;;;;;;1038582;28;20418;-77
2022/09/23 01:18:05;;;;;;;;;;;;;;;;;;1043180;28;19967;-77
2022/09/23 01:18:35;;;;;;;;;;;;;;;;;;1041276;28;19921;-77
2022/09/23 01:19:07;;;;;;;;;;;;;;;;;;1041224;28;20102;-77
2022/09/23 01:19:37;;;;;;;;;;;;;;;;;;1041928;28;19960;-77
2022/09/23 01:20:07;;;;;;;;;;;;;;;;;;1040634;28;19913;-78
2022/09/23 01:20:40;;;;;;;;;;;;;;;;;;1041090;28;19917;-78
2022/09/23 01:21:13;;;;;;;;;;;;;;;;;;1042859;28;20399;-78
2022/09/23 01:21:44;;;;;;;;;;;;;;;;;;1039601;28;19917;-78
2022/09/23 01:22:14;;;;;;;;;;;;;;;;;;1040754;28;19924;-78
2022/09/23 01:22:45;;;;;;;;;;;;;;;;;;1040874;28;19921;-78
2022/09/23 01:23:16;;;;;;;;;;;;;;;;;;1040919;28;19916;-78
2022/09/23 01:23:47;;;;;;;;;;;;;;;;;;1045712;28;19947;-79
2022/09/23 01:24:17;;;;;;;;;;;;;;;;;;1040106;28;19962;-79
2022/09/23 01:24:48;;;;;;;;;;;;;;;;;;1041445;28;19923;-78
2022/09/23 01:25:18;;;;;;;;;;;;;;;;;;1041068;28;19952;-77
2022/09/23 01:25:52;;;;;;;;;;;;;;;;;;1037934;28;20697;-78
2022/09/23 01:26:22;;;;;;;;;;;;;;;;;;1041662;28;19920;-80
2022/09/23 01:26:56;;;;;;;;;;;;;;;;;;1041744;28;19956;-79
2022/09/23 01:27:27;;;;;;;;;;;;;;;;;;1039571;28;19919;-79
2022/09/23 01:27:57;;;;;;;;;;;;;;;;;;1041142;28;19967;-76
2022/09/23 01:28:28;;;;;;;;;;;;;;;;;;1044857;28;20429;-78
2022/09/23 01:28:59;;;;;;;;;;;;;;;;;;1040424;28;19913;-79
2022/09/23 01:29:32;;;;;;;;;;;;;;;;;;1040621;28;20031;-79
2022/09/23 01:30:05;;;;;;;;;;;;;;;;;;1042327;28;19917;-78
2022/09/23 01:30:39;;;;;;;;;;;;;;;;;;1041112;28;19939;-78
2022/09/23 01:31:09;;;;;;;;;;;;;;;;;;1045621;28;19912;-77
2022/09/23 01:31:40;;;;;;;;;;;;;;;;;;1037767;28;19913;-78
2022/09/23 01:32:16;;;;;;;;;;;;;;;;;;1039267;28;19916;-79
2022/09/23 01:32:46;;;;;;;;;;;;;;;;;;1039363;28;19924;-78
2022/09/23 01:33:17;;;;;;;;;;;;;;;;;;1038436;28;20311;-78
2022/09/23 01:33:48;;;;;;;;;;;;;;;;;;1042986;28;20482;-78
2022/09/23 01:34:23;;;;;;;;;;;;;;;;;;1043392;28;19917;-78
2022/09/23 01:34:53;;;;;;;;;;;;;;;;;;1039496;28;19918;-78
2022/09/23 01:35:24;;;;;;;;;;;;;;;;;;1042259;28;19920;-78
2022/09/23 01:35:54;;;;;;;;;;;;;;;;;;1042034;28;20006;-79
2022/09/23 01:36:25;;;;;;;;;;;;;;;;;;1041047;28;20016;-78
2022/09/23 01:36:55;;;;;;;;;;;;;;;;;;1045946;28;19913;-79
2022/09/23 01:37:27;;;;;;;;;;;;;;;;;;1037367;28;19936;-78
2022/09/23 01:37:57;;;;;;;;;;;;;;;;;;1035030;28;19928;-79
2022/09/23 01:38:28;;;;;;;;;;;;;;;;;;1033141;28;20392;-79
2022/09/23 01:38:58;;;;;;;;;;;;;;;;;;1030553;28;20320;-78
2022/09/23 01:39:28;;;;;;;;;;;;;;;;;;1032091;28;19925;-78
2022/09/23 01:40:00;;;;;;;;;;;;;;;;;;1032894;28;20291;-78
2022/09/23 01:40:31;;;;;;;;;;;;;;;;;;1037522;28;19933;-78
2022/09/23 01:41:02;;;;;;;;;;;;;;;;;;1041971;28;20031;-77
2022/09/23 01:41:33;;;;;;;;;;;;;;;;;;1042336;28;19971;-77
2022/09/23 01:42:06;;;;;;;;;;;;;;;;;;1041321;28;20394;-79
2022/09/23 01:42:38;;;;;;;;;;;;;;;;;;1037520;28;19913;-79
2022/09/23 01:43:09;;;;;;;;;;;;;;;;;;1038129;28;19956;-78
2022/09/23 01:43:40;;;;;;;;;;;;;;;;;;1039001;28;19960;-78
2022/09/23 01:44:10;;;;;;;;;;;;;;;;;;1036670;28;19913;-79
2022/09/23 01:44:41;;;;;;;;;;;;;;;;;;1039010;28;19913;-76
2022/09/23 01:45:12;;;;;;;;;;;;;;;;;;1039770;28;20313;-79
2022/09/23 01:45:43;;;;;;;;;;;;;;;;;;1038098;28;19913;-79
2022/09/23 01:46:13;;;;;;;;;;;;;;;;;;1039496;28;19913;-79
2022/09/23 01:46:44;;;;;;;;;;;;;;;;;;1037886;28;19945;-78
2022/09/23 01:47:15;;;;;;;;;;;;;;;;;;1039549;28;19975;-77
2022/09/23 01:47:45;;;;;;;;;;;;;;;;;;1037216;28;20358;-78
2022/09/23 01:48:17;;;;;;;;;;;;;;;;;;1036691;28;20358;-78
2022/09/23 01:48:54;;;;;;;;;;;;;;;;;;1039707;28;19938;-78
2022/09/23 01:49:25;;;;;;;;;;;;;;;;;;1043728;28;19928;-80
2022/09/23 01:49:56;;;;;;;;;;;;;;;;;;1043808;28;19923;-77
2022/09/23 01:51:17;;;;;;;;;;;;;;;;;;1046858;28;19912;-82
2022/09/23 01:51:48;;;;;;;;;;;;;;;;;;1038758;28;19939;-78
2022/09/23 01:52:21;;;;;;;;;;;;;;;;;;1039415;28;19920;-78
2022/09/23 01:52:52;;;;;;;;;;;;;;;;;;1041296;28;19975;-78
2022/09/23 01:53:22;;;;;;;;;;;;;;;;;;1040848;28;19986;-78
2022/09/23 01:53:52;;;;;;;;;;;;;;;;;;1039764;28;20458;-78
2022/09/23 01:54:23;;;;;;;;;;;;;;;;;;1040630;28;20227;-77
2022/09/23 01:54:53;;;;;;;;;;;;;;;;;;1036108;28;19917;-78
2022/09/23 01:55:23;;;;;;;;;;;;;;;;;;1036301;28;20007;-78
2022/09/23 01:55:56;;;;;;;;;;;;;;;;;;1041392;28;19965;-78
2022/09/23 01:56:27;;;;;;;;;;;;;;;;;;1036487;28;19932;-78
2022/09/23 01:56:57;;;;;;;;;;;;;;;;;;1037611;28;19925;-77
2022/09/23 01:57:27;;;;;;;;;;;;;;;;;;1037742;28;19921;-79
2022/09/23 01:57:58;;;;;;;;;;;;;;;;;;1034363;28;20400;-77
2022/09/23 01:58:28;;;;;;;;;;;;;;;;;;1037571;28;19924;-78
2022/09/23 01:59:00;;;;;;;;;;;;;;;;;;1042018;28;20661;-78
2022/09/23 01:59:30;;;;;;;;;;;;;;;;;;1041634;28;19921;-78
2022/09/23 02:00:03;;;;;;;;;;;;;;;;;;1041721;28;19921;-79
2022/09/23 02:00:34;;;;;;;;;;;;;;;;;;1037504;28;19963;-77
2022/09/23 02:01:05;;;;;;;;;;;;;;;;;;1036986;28;20012;-77
2022/09/23 02:01:36;;;;;;;;;;;;;;;;;;1040002;28;19936;-76
2022/09/23 02:02:06;;;;;;;;;;;;;;;;;;1039028;28;19920;-76
2022/09/23 02:02:36;;;;;;;;;;;;;;;;;;1039824;28;19982;-75
2022/09/23 02:03:09;;;;;;;;;;;;;;;;;;1040857;28;19923;-76
2022/09/23 02:03:39;;;;;;;;;;;;;;;;;;1039994;28;20319;-77
2022/09/23 02:04:10;;;;;;;;;;;;;;;;;;1041968;28;19967;-77
2022/09/23 02:04:43;;;;;;;;;;;;;;;;;;1041195;28;19951;-77
2022/09/23 02:05:14;;;;;;;;;;;;;;;;;;1037601;28;19921;-78
2022/09/23 02:05:45;;;;;;;;;;;;;;;;;;1039031;28;19921;-77
2022/09/23 02:06:16;;;;;;;;;;;;;;;;;;1034684;28;19979;-77
2022/09/23 02:06:47;;;;;;;;;;;;;;;;;;1030872;28;19968;-76
2022/09/23 02:07:19;;;;;;;;;;;;;;;;;;1034280;28;20168;-77
2022/09/23 02:07:53;;;;;;;;;;;;;;;;;;1042087;28;19917;-76
2022/09/23 02:08:24;;;;;;;;;;;;;;;;;;1043657;28;19917;-77
2022/09/23 02:08:55;;;;;;;;;;;;;;;;;;1042877;28;19974;-78
2022/09/23 02:09:25;;;;;;;;;;;;;;;;;;1041326;28;19917;-77
2022/09/23 02:09:56;;;;;;;;;;;;;;;;;;1041306;28;19913;-77
2022/09/23 02:10:26;;;;;;;;;;;;;;;;;;1042344;28;19928;-77
2022/09/23 02:10:57;;;;;;;;;;;;;;;;;;1045261;28;19948;-78
2022/09/23 02:11:28;;;;;;;;;;;;;;;;;;1040140;28;20431;-77
2022/09/23 02:11:59;;;;;;;;;;;;;;;;;;1042383;28;19917;-77
2022/09/23 02:12:29;;;;;;;;;;;;;;;;;;1041240;28;19963;-78
2022/09/23 02:13:00;;;;;;;;;;;;;;;;;;1040521;28;19936;-77
2022/09/23 02:13:31;;;;;;;;;;;;;;;;;;1040654;28;19991;-76
2022/09/23 02:14:02;;;;;;;;;;;;;;;;;;1038415;28;20454;-79
2022/09/23 02:14:32;;;;;;;;;;;;;;;;;;1037479;28;20398;-77
2022/09/23 02:15:03;;;;;;;;;;;;;;;;;;1038565;28;20369;-76
2022/09/23 02:15:33;;;;;;;;;;;;;;;;;;1041522;28;20309;-76
2022/09/23 02:16:04;;;;;;;;;;;;;;;;;;1041016;28;19975;-77
2022/09/23 02:16:34;;;;;;;;;;;;;;;;;;1045409;28;20351;-77
2022/09/23 02:17:05;;;;;;;;;;;;;;;;;;1047335;28;19920;-77
2022/09/23 02:17:35;;;;;;;;;;;;;;;;;;1042256;28;19980;-76
2022/09/23 02:18:05;;;;;;;;;;;;;;;;;;1041909;28;20398;-76
2022/09/23 02:18:36;;;;;;;;;;;;;;;;;;1041334;28;19913;-75
2022/09/23 02:19:09;;;;;;;;;;;;;;;;;;1041024;28;19943;-76
2022/09/23 02:19:40;;;;;;;;;;;;;;;;;;1040554;28;20353;-76
2022/09/23 02:20:11;;;;;;;;;;;;;;;;;;1041356;28;20276;-76
2022/09/23 02:20:41;;;;;;;;;;;;;;;;;;1041452;28;20776;-76
2022/09/23 02:21:12;;;;;;;;;;;;;;;;;;1039651;28;19967;-78
2022/09/23 02:21:42;;;;;;;;;;;;;;;;;;1040063;28;20372;-76
2022/09/23 02:22:12;;;;;;;;;;;;;;;;;;1039584;28;19974;-75
2022/09/23 02:22:43;;;;;;;;;;;;;;;;;;1039700;28;20331;-78
2022/09/23 02:23:13;;;;;;;;;;;;;;;;;;1038910;28;19917;-79
2022/09/23 02:23:43;;;;;;;;;;;;;;;;;;1041820;28;19912;-79
2022/09/23 02:24:14;;;;;;;;;;;;;;;;;;1043650;28;19924;-78
2022/09/23 02:24:44;;;;;;;;;;;;;;;;;;1041391;28;19920;-77
2022/09/23 02:25:16;;;;;;;;;;;;;;;;;;1041173;28;19967;-77
2022/09/23 02:25:46;;;;;;;;;;;;;;;;;;1041937;28;19913;-77
2022/09/23 02:26:18;;;;;;;;;;;;;;;;;;1037338;28;19956;-77
2022/09/23 02:26:48;;;;;;;;;;;;;;;;;;1038694;28;19920;-76
2022/09/23 02:27:18;;;;;;;;;;;;;;;;;;1038861;28;19913;-77
2022/09/23 02:27:49;;;;;;;;;;;;;;;;;;1042927;28;20509;-77
2022/09/23 02:28:19;;;;;;;;;;;;;;;;;;1045159;28;19927;-77
2022/09/23 02:28:50;;;;;;;;;;;;;;;;;;1043069;28;19913;-77
2022/09/23 02:29:20;;;;;;;;;;;;;;;;;;1042745;28;19923;-77
2022/09/23 02:29:51;;;;;;;;;;;;;;;;;;1041204;28;19913;-77
2022/09/23 02:30:21;;;;;;;;;;;;;;;;;;1040786;28;20439;-78
2022/09/23 02:30:55;;;;;;;;;;;;;;;;;;1042961;28;19921;-76
2022/09/23 02:31:26;;;;;;;;;;;;;;;;;;1041499;28;19913;-76
2022/09/23 02:31:56;;;;;;;;;;;;;;;;;;1042042;28;19914;-76
2022/09/23 02:32:27;;;;;;;;;;;;;;;;;;1037688;28;19972;-76
2022/09/23 02:32:57;;;;;;;;;;;;;;;;;;1037370;28;20123;-76
2022/09/23 02:33:27;;;;;;;;;;;;;;;;;;1037892;28;19956;-77
2022/09/23 02:33:58;;;;;;;;;;;;;;;;;;1038130;28;19999;-77
2022/09/23 02:34:30;;;;;;;;;;;;;;;;;;1034721;28;20509;-76
2022/09/23 02:35:01;;;;;;;;;;;;;;;;;;1032427;28;19918;-78
2022/09/23 02:35:31;;;;;;;;;;;;;;;;;;1034137;28;19968;-76
2022/09/23 02:36:02;;;;;;;;;;;;;;;;;;1036926;28;19913;-77
2022/09/23 02:36:32;;;;;;;;;;;;;;;;;;1038406;28;20368;-77
2022/09/23 02:37:03;;;;;;;;;;;;;;;;;;1037302;28;19917;-77
2022/09/23 02:37:34;;;;;;;;;;;;;;;;;;1040712;28;19920;-77
2022/09/23 02:38:04;;;;;;;;;;;;;;;;;;1040845;28;20353;-76
2022/09/23 02:38:34;;;;;;;;;;;;;;;;;;1039028;28;19952;-78
2022/09/23 02:39:05;;;;;;;;;;;;;;;;;;1034555;28;19920;-77
2022/09/23 02:39:36;;;;;;;;;;;;;;;;;;1032363;28;19913;-76
2022/09/23 02:40:11;;;;;;;;;;;;;;;;;;1040037;28;19939;-76
2022/09/23 02:40:41;;;;;;;;;;;;;;;;;;1042660;28;20365;-77
2022/09/23 02:41:13;;;;;;;;;;;;;;;;;;1045583;28;19952;-77
2022/09/23 02:41:43;;;;;;;;;;;;;;;;;;1041029;28;20668;-78
2022/09/23 02:42:14;;;;;;;;;;;;;;;;;;1042990;28;19904;-78
2022/09/23 02:42:45;;;;;;;;;;;;;;;;;;1036577;28;19917;-78
2022/09/23 02:43:18;;;;;;;;;;;;;;;;;;1033113;28;20378;-77
2022/09/23 02:43:49;;;;;;;;;;;;;;;;;;1033875;28;19917;-77
2022/09/23 02:44:21;;;;;;;;;;;;;;;;;;1038881;28;20405;-77
2022/09/23 02:44:52;;;;;;;;;;;;;;;;;;1036750;28;20305;-77
2022/09/23 02:45:22;;;;;;;;;;;;;;;;;;1035503;28;19921;-77
2022/09/23 02:45:54;;;;;;;;;;;;;;;;;;1034510;28;20521;-77
2022/09/23 02:46:25;;;;;;;;;;;;;;;;;;1023945;28;19963;-77
2022/09/23 02:46:56;;;;;;;;;;;;;;;;;;1028866;28;20355;-77
2022/09/23 02:47:27;;;;;;;;;;;;;;;;;;1027845;28;19996;-77
2022/09/23 02:47:57;;;;;;;;;;;;;;;;;;1029644;28;20043;-77
2022/09/23 02:48:27;;;;;;;;;;;;;;;;;;1028590;28;19917;-77
2022/09/23 02:48:59;;;;;;;;;;;;;;;;;;1029054;28;20313;-77
2022/09/23 02:49:30;;;;;;;;;;;;;;;;;;1034620;28;20428;-78
2022/09/23 02:50:00;;;;;;;;;;;;;;;;;;1025481;28;20687;-77
2022/09/23 02:50:31;;;;;;;;;;;;;;;;;;1020431;28;19940;-77
2022/09/23 02:51:02;;;;;;;;;;;;;;;;;;1021773;28;19918;-77
2022/09/23 02:51:34;;;;;;;;;;;;;;;;;;1027073;28;19967;-77
2022/09/23 02:52:06;;;;;;;;;;;;;;;;;;1033060;28;20801;-77
2022/09/23 02:52:37;;;;;;;;;;;;;;;;;;1035287;28;20038;-76
2022/09/23 02:53:08;;;;;;;;;;;;;;;;;;1031612;28;19986;-78
2022/09/23 02:53:38;;;;;;;;;;;;;;;;;;1033320;28;20416;-78
2022/09/23 02:54:09;;;;;;;;;;;;;;;;;;1034007;28;20746;-77
2022/09/23 02:54:40;;;;;;;;;;;;;;;;;;1025258;28;20145;-78
2022/09/23 02:55:10;;;;;;;;;;;;;;;;;;1025936;28;19920;-77
2022/09/23 02:55:41;;;;;;;;;;;;;;;;;;1026476;28;19921;-77
2022/09/23 02:56:12;;;;;;;;;;;;;;;;;;1028223;28;20913;-78
2022/09/23 02:56:43;;;;;;;;;;;;;;;;;;1031849;28;19917;-77
2022/09/23 02:57:13;;;;;;;;;;;;;;;;;;1025458;28;20513;-78
2022/09/23 02:57:43;;;;;;;;;;;;;;;;;;1027199;28;19920;-78
2022/09/23 02:58:14;;;;;;;;;;;;;;;;;;1028483;28;20587;-78
2022/09/23 02:58:45;;;;;;;;;;;;;;;;;;1024739;28;19928;-78
2022/09/23 02:59:18;;;;;;;;;;;;;;;;;;1039486;28;19921;-78
2022/09/23 02:59:48;;;;;;;;;;;;;;;;;;1034477;28;19996;-78
2022/09/23 03:00:19;;;;;;;;;;;;;;;;;;1036177;28;19913;-77
2022/09/23 03:00:49;;;;;;;;;;;;;;;;;;1036139;28;19916;-77
2022/09/23 03:01:20;;;;;;;;;;;;;;;;;;1033874;28;20468;-77
2022/09/23 03:01:51;;;;;;;;;;;;;;;;;;1036871;28;19917;-77
2022/09/23 03:02:21;;;;;;;;;;;;;;;;;;1039767;28;20175;-78
2022/09/23 03:02:54;;;;;;;;;;;;;;;;;;1038705;28;20273;-79
2022/09/23 03:03:25;;;;;;;;;;;;;;;;;;1037094;28;19916;-78
2022/09/23 03:03:55;;;;;;;;;;;;;;;;;;1033036;28;20198;-77
2022/09/23 03:04:26;;;;;;;;;;;;;;;;;;1031762;28;19959;-77
2022/09/23 03:04:57;;;;;;;;;;;;;;;;;;1032657;28;19916;-78
2022/09/23 03:05:30;;;;;;;;;;;;;;;;;;1035858;28;20276;-79
2022/09/23 03:06:00;;;;;;;;;;;;;;;;;;1034594;28;20023;-79
2022/09/23 03:06:31;;;;;;;;;;;;;;;;;;1031277;28;19985;-82
2022/09/23 03:07:01;;;;;;;;;;;;;;;;;;1028021;28;20473;-79
2022/09/23 03:07:32;;;;;;;;;;;;;;;;;;1032705;28;19921;-83
2022/09/23 03:08:03;;;;;;;;;;;;;;;;;;1037108;28;20446;-82
2022/09/23 03:08:35;;;;;;;;;;;;;;;;;;1034743;28;20920;-80
2022/09/23 03:09:05;;;;;;;;;;;;;;;;;;1036331;28;20555;-79
2022/09/23 03:09:36;;;;;;;;;;;;;;;;;;1037279;28;20032;-81
2022/09/23 03:10:07;;;;;;;;;;;;;;;;;;1035879;28;20013;-82
2022/09/23 03:10:37;;;;;;;;;;;;;;;;;;1042353;28;20049;-82
2022/09/23 03:11:07;;;;;;;;;;;;;;;;;;1042072;28;19964;-80
2022/09/23 03:11:38;;;;;;;;;;;;;;;;;;1036892;28;20388;-82
2022/09/23 03:12:08;;;;;;;;;;;;;;;;;;1036705;28;20013;-82
2022/09/23 03:12:39;;;;;;;;;;;;;;;;;;1036227;28;20667;-81
2022/09/23 03:13:12;;;;;;;;;;;;;;;;;;1035467;28;20203;-80
2022/09/23 03:13:45;;;;;;;;;;;;;;;;;;1037682;23;21156;-79
2022/09/23 03:14:16;;;;;;;;;;;;;;;;;;1027744;28;19921;-79
2022/09/23 03:14:48;;;;;;;;;;;;;;;;;;1025238;28;20570;-78
2022/09/23 03:15:18;;;;;;;;;;;;;;;;;;1022095;28;20298;-77
2022/09/23 03:15:51;;;;;;;;;;;;;;;;;;1024029;28;20187;-78
2022/09/23 03:16:21;;;;;;;;;;;;;;;;;;1023156;28;20676;-77
2022/09/23 03:16:51;;;;;;;;;;;;;;;;;;1028479;28;19917;-79
2022/09/23 03:17:22;;;;;;;;;;;;;;;;;;1064164;22;20320;-83
2022/09/23 03:17:52;;;;;;;;;;;;;;;;;;1036841;28;19924;-83
2022/09/23 03:18:22;;;;;;;;;;;;;;;;;;1036887;28;20321;-82
2022/09/23 03:18:54;;;;;;;;;;;;;;;;;;1037185;28;19917;-81
2022/09/23 03:19:25;;;;;;;;;;;;;;;;;;1035548;28;19941;-86
2022/09/23 03:19:55;;;;;;;;;;;;;;;;;;1036752;23;19929;-80
2022/09/23 03:20:25;;;;;;;;;;;;;;;;;;1043216;22;20172;-76
2022/09/23 03:20:56;;;;;;;;;;;;;;;;;;1038682;28;20439;-78
2022/09/23 03:21:26;;;;;;;;;;;;;;;;;;1038295;28;21374;-77
2022/09/23 03:21:59;;;;;;;;;;;;;;;;;;1038031;28;19927;-77
2022/09/23 03:22:29;;;;;;;;;;;;;;;;;;1038078;28;20326;-79
2022/09/23 03:23:00;;;;;;;;;;;;;;;;;;1038150;28;20332;-77
2022/09/23 03:23:30;;;;;;;;;;;;;;;;;;1037889;28;20794;-77
2022/09/23 03:24:00;;;;;;;;;;;;;;;;;;1039265;28;19938;-78
2022/09/23 03:24:31;;;;;;;;;;;;;;;;;;1034376;28;20433;-77
2022/09/23 03:25:01;;;;;;;;;;;;;;;;;;1034189;28;20810;-79
2022/09/23 03:25:35;;;;;;;;;;;;;;;;;;1035122;28;20032;-79
2022/09/23 03:26:10;;;;;;;;;;;;;;;;;;1038927;23;20534;-80
2022/09/23 03:26:43;;;;;;;;;;;;;;;;;;1022651;28;19925;-79
2022/09/23 03:27:13;;;;;;;;;;;;;;;;;;1026736;28;20287;-79
2022/09/23 03:27:44;;;;;;;;;;;;;;;;;;1030930;28;20340;-79
2022/09/23 03:28:15;;;;;;;;;;;;;;;;;;1027680;28;20382;-77
2022/09/23 03:28:45;;;;;;;;;;;;;;;;;;1029710;28;19917;-80
2022/09/23 03:29:15;;;;;;;;;;;;;;;;;;1042987;22;20021;-78
2022/09/23 03:29:46;;;;;;;;;;;;;;;;;;1037162;28;19933;-79
2022/09/23 03:30:16;;;;;;;;;;;;;;;;;;1036595;28;19916;-78
2022/09/23 03:30:49;;;;;;;;;;;;;;;;;;1039769;28;19927;-80
2022/09/23 03:31:22;;;;;;;;;;;;;;;;;;1035227;28;19951;-78